sensor_id;sensor_type;location;lat;lon;timestamp;pressure;altitude;pressure_sealevel;temperature;humidity
24013;BME280;12220;50.194;18.948;2023-04-28T00:01:44;102352.93;;;5.52;55.83
24013;BME280;12220;50.194;18.948;2023-04-28T00:03:46;102350.21;;;5.52;55.80
24013;BME280;12220;50.194;18.948;2023-04-28T00:05:48;102354.77;;;5.50;55.78
24013;BME280;12220;50.194;18.948;2023-04-28T00:07:49;102350.36;;;5.46;55.85
24013;BME280;12220;50.194;18.948;2023-04-28T00:09:59;102351.35;;;5.42;55.89
24013;BME280;12220;50.194;18.948;2023-04-28T00:12:01;102354.15;;;5.39;55.94
24013;BME280;12220;50.194;18.948;2023-04-28T00:14:03;102354.23;;;5.34;55.94
24013;BME280;12220;50.194;18.948;2023-04-28T00:16:06;102355.25;;;5.30;56.09
24013;BME280;12220;50.194;18.948;2023-04-28T00:18:15;102349.88;;;5.27;56.24
24013;BME280;12220;50.194;18.948;2023-04-28T00:20:16;102351.69;;;5.27;56.40
24013;BME280;12220;50.194;18.948;2023-04-28T00:22:18;102352.60;;;5.27;56.51
24013;BME280;12220;50.194;18.948;2023-04-28T00:24:19;102348.01;;;5.29;56.79
24013;BME280;12220;50.194;18.948;2023-04-28T00:26:30;102354.27;;;5.33;56.64
24013;BME280;12220;50.194;18.948;2023-04-28T00:28:31;102350.63;;;5.34;56.68
24013;BME280;12220;50.194;18.948;2023-04-28T00:30:32;102348.76;;;5.37;56.77
24013;BME280;12220;50.194;18.948;2023-04-28T00:32:34;102346.91;;;5.38;56.85
24013;BME280;12220;50.194;18.948;2023-04-28T00:34:45;102345.96;;;5.40;56.84
24013;BME280;12220;50.194;18.948;2023-04-28T00:36:46;102349.56;;;5.41;56.87
24013;BME280;12220;50.194;18.948;2023-04-28T00:38:48;102349.56;;;5.41;56.94
24013;BME280;12220;50.194;18.948;2023-04-28T00:40:49;102343.16;;;5.44;56.95
24013;BME280;12220;50.194;18.948;2023-04-28T00:43:00;102344.05;;;5.44;56.92
24013;BME280;12220;50.194;18.948;2023-04-28T00:45:02;102342.21;;;5.46;56.95
24013;BME280;12220;50.194;18.948;2023-04-28T00:47:10;102347.61;;;5.48;56.89
24013;BME280;12220;50.194;18.948;2023-04-28T00:49:12;102351.24;;;5.47;56.83
24013;BME280;12220;50.194;18.948;2023-04-28T00:51:16;102353.12;;;5.43;56.77
24013;BME280;12220;50.194;18.948;2023-04-28T00:53:17;102347.80;;;5.38;56.86
24013;BME280;12220;50.194;18.948;2023-04-28T00:55:19;102353.26;;;5.37;56.97
24013;BME280;12220;50.194;18.948;2023-04-28T00:57:22;102354.23;;;5.36;56.98
24013;BME280;12220;50.194;18.948;2023-04-28T00:59:34;102347.95;;;5.32;56.91
24013;BME280;12220;50.194;18.948;2023-04-28T01:01:35;102344.46;;;5.26;56.91
24013;BME280;12220;50.194;18.948;2023-04-28T01:03:39;102359.09;;;5.18;56.95
24013;BME280;12220;50.194;18.948;2023-04-28T01:05:41;102351.13;;;5.11;57.10
24013;BME280;12220;50.194;18.948;2023-04-28T01:07:46;102348.51;;;5.06;57.27
24013;BME280;12220;50.194;18.948;2023-04-28T01:09:48;102353.10;;;5.04;57.50
24013;BME280;12220;50.194;18.948;2023-04-28T01:11:49;102347.66;;;5.04;57.66
24013;BME280;12220;50.194;18.948;2023-04-28T01:13:51;102356.66;;;5.06;57.76
24013;BME280;12220;50.194;18.948;2023-04-28T01:16:01;102355.74;;;5.07;57.74
24013;BME280;12220;50.194;18.948;2023-04-28T01:18:03;102349.36;;;5.08;57.79
24013;BME280;12220;50.194;18.948;2023-04-28T01:20:05;102350.27;;;5.09;57.83
24013;BME280;12220;50.194;18.948;2023-04-28T01:22:06;102346.66;;;5.08;57.88
24013;BME280;12220;50.194;18.948;2023-04-28T01:24:17;102351.20;;;5.08;57.90
24013;BME280;12220;50.194;18.948;2023-04-28T01:26:18;102350.31;;;5.07;57.93
24013;BME280;12220;50.194;18.948;2023-04-28T01:28:20;102354.83;;;5.06;57.98
24013;BME280;12220;50.194;18.948;2023-04-28T01:30:21;102345.80;;;5.06;57.98
24013;BME280;12220;50.194;18.948;2023-04-28T01:32:32;102345.77;;;5.08;57.97
24013;BME280;12220;50.194;18.948;2023-04-28T01:34:33;102348.51;;;5.06;58.00
24013;BME280;12220;50.194;18.948;2023-04-28T01:36:34;102340.38;;;5.06;57.98
24013;BME280;12220;50.194;18.948;2023-04-28T01:38:36;102343.09;;;5.06;57.96
24013;BME280;12220;50.194;18.948;2023-04-28T01:40:47;102344.01;;;5.05;57.91
24013;BME280;12220;50.194;18.948;2023-04-28T01:42:48;102345.83;;;5.04;57.92
24013;BME280;12220;50.194;18.948;2023-04-28T01:44:50;102348.55;;;5.04;57.92
24013;BME280;12220;50.194;18.948;2023-04-28T01:46:52;102356.70;;;5.04;57.88
24013;BME280;12220;50.194;18.948;2023-04-28T01:49:02;102347.70;;;5.02;57.85
24013;BME280;12220;50.194;18.948;2023-04-28T01:51:03;102353.13;;;5.01;57.85
24013;BME280;12220;50.194;18.948;2023-04-28T01:53:05;102347.77;;;4.98;57.86
24013;BME280;12220;50.194;18.948;2023-04-28T01:55:07;102362.30;;;4.97;57.86
24013;BME280;12220;50.194;18.948;2023-04-28T01:57:17;102354.18;;;4.95;57.81
24013;BME280;12220;50.194;18.948;2023-04-28T01:59:18;102359.65;;;4.94;57.82
24013;BME280;12220;50.194;18.948;2023-04-28T02:01:20;102356.09;;;4.90;57.80
24013;BME280;12220;50.194;18.948;2023-04-28T02:03:22;102160.36;;;3.76;57.70
24013;BME280;12220;50.194;18.948;2023-04-28T02:05:32;102353.60;;;4.79;57.71
24013;BME280;12220;50.194;18.948;2023-04-28T02:07:34;102357.40;;;4.70;57.78
24013;BME280;12220;50.194;18.948;2023-04-28T02:09:36;102351.24;;;4.61;57.88
24013;BME280;12220;50.194;18.948;2023-04-28T02:11:37;102349.63;;;4.50;58.07
24013;BME280;12220;50.194;18.948;2023-04-28T02:13:47;102350.71;;;4.42;58.36
24013;BME280;12220;50.194;18.948;2023-04-28T02:15:50;102352.58;;;4.36;58.62
24013;BME280;12220;50.194;18.948;2023-04-28T02:17:52;102349.91;;;4.35;58.87
24013;BME280;12220;50.194;18.948;2023-04-28T02:19:54;102352.65;;;4.33;59.02
24013;BME280;12220;50.194;18.948;2023-04-28T02:22:03;102361.70;;;4.34;59.05
24013;BME280;12220;50.194;18.948;2023-04-28T02:24:05;102358.08;;;4.33;59.14
24013;BME280;12220;50.194;18.948;2023-04-28T02:26:08;102342.71;;;4.34;59.21
24013;BME280;12220;50.194;18.948;2023-04-28T02:28:09;102349.91;;;4.35;59.24
24013;BME280;12220;50.194;18.948;2023-04-28T02:30:18;102350.76;;;4.39;59.21
24013;BME280;12220;50.194;18.948;2023-04-28T02:32:19;102349.84;;;4.38;59.25
24013;BME280;12220;50.194;18.948;2023-04-28T02:34:21;102340.79;;;4.39;59.30
24013;BME280;12220;50.194;18.948;2023-04-28T02:36:22;102346.16;;;4.42;59.33
24013;BME280;12220;50.194;18.948;2023-04-28T02:38:34;102345.25;;;4.43;59.25
24013;BME280;12220;50.194;18.948;2023-04-28T02:40:35;102340.68;;;4.45;59.21
24013;BME280;12220;50.194;18.948;2023-04-28T02:42:36;102337.93;;;4.47;59.16
24013;BME280;12220;50.194;18.948;2023-04-28T02:44:38;102337.93;;;4.47;59.16
24013;BME280;12220;50.194;18.948;2023-04-28T02:46:48;102330.71;;;4.47;59.14
24013;BME280;12220;50.194;18.948;2023-04-28T02:48:50;102333.43;;;4.47;59.12
24013;BME280;12220;50.194;18.948;2023-04-28T02:50:52;102332.51;;;4.47;59.14
24013;BME280;12220;50.194;18.948;2023-04-28T02:52:53;102334.30;;;4.48;59.20
24013;BME280;12220;50.194;18.948;2023-04-28T02:55:04;102330.77;;;4.44;59.16
24013;BME280;12220;50.194;18.948;2023-04-28T02:57:06;102330.77;;;4.44;59.08
24013;BME280;12220;50.194;18.948;2023-04-28T02:59:07;102334.43;;;4.42;59.01
24013;BME280;12220;50.194;18.948;2023-04-28T03:01:09;102334.55;;;4.35;58.93
24013;BME280;12220;50.194;18.948;2023-04-28T03:03:19;102328.36;;;4.27;58.93
24013;BME280;12220;50.194;18.948;2023-04-28T03:05:20;102330.28;;;4.21;59.07
24013;BME280;12220;50.194;18.948;2023-04-28T03:07:21;102333.08;;;4.16;59.17
24013;BME280;12220;50.194;18.948;2023-04-28T03:09:23;102330.45;;;4.11;59.17
24013;BME280;12220;50.194;18.948;2023-04-28T03:11:34;102334.20;;;4.04;59.23
24013;BME280;12220;50.194;18.948;2023-04-28T03:13:35;102332.48;;;3.98;59.33
24013;BME280;12220;50.194;18.948;2023-04-28T03:15:37;102334.41;;;3.92;59.41
24013;BME280;12220;50.194;18.948;2023-04-28T03:17:38;102336.31;;;3.85;59.47
24013;BME280;12220;50.194;18.948;2023-04-28T03:19:49;102346.35;;;3.78;59.57
24013;BME280;12220;50.194;18.948;2023-04-28T03:21:50;102363.60;;;3.73;59.77
24013;BME280;12220;50.194;18.948;2023-04-28T03:23:52;102340.21;;;3.69;59.98
24013;BME280;12220;50.194;18.948;2023-04-28T03:25:54;102335.72;;;3.66;60.13
24013;BME280;12220;50.194;18.948;2023-04-28T03:28:04;102334.80;;;3.65;60.20
24013;BME280;12220;50.194;18.948;2023-04-28T03:30:06;102330.34;;;3.64;60.32
24013;BME280;12220;50.194;18.948;2023-04-28T03:32:10;102327.63;;;3.64;60.38
24013;BME280;12220;50.194;18.948;2023-04-28T03:34:12;102327.63;;;3.64;60.49
24013;BME280;12220;50.194;18.948;2023-04-28T03:36:19;102328.48;;;3.66;60.57
24013;BME280;12220;50.194;18.948;2023-04-28T03:38:21;102332.08;;;3.69;60.66
24013;BME280;12220;50.194;18.948;2023-04-28T03:40:22;102330.23;;;3.71;60.69
24013;BME280;12220;50.194;18.948;2023-04-28T03:42:24;102323.87;;;3.73;60.72
24013;BME280;12220;50.194;18.948;2023-04-28T03:44:35;102323.81;;;3.76;60.75
24013;BME280;12220;50.194;18.948;2023-04-28T03:46:36;102328.34;;;3.77;60.83
24013;BME280;12220;50.194;18.948;2023-04-28T03:48:37;102321.94;;;3.80;60.90
24013;BME280;12220;50.194;18.948;2023-04-28T03:50:38;102321.94;;;3.80;60.96
24013;BME280;12220;50.194;18.948;2023-04-28T03:52:50;102315.58;;;3.82;60.92
24013;BME280;12220;50.194;18.948;2023-04-28T03:54:51;102318.29;;;3.82;61.01
24013;BME280;12220;50.194;18.948;2023-04-28T03:56:53;102312.90;;;3.81;61.07
24013;BME280;12220;50.194;18.948;2023-04-28T03:58:54;102315.58;;;3.82;61.13
24013;BME280;12220;50.194;18.948;2023-04-28T04:01:05;102318.29;;;3.82;61.15
24013;BME280;12220;50.194;18.948;2023-04-28T04:03:06;102329.13;;;3.82;61.24
24013;BME280;12220;50.194;18.948;2023-04-28T04:05:08;102326.41;;;3.82;61.33
24013;BME280;12220;50.194;18.948;2023-04-28T04:07:10;102324.59;;;3.84;61.40
24013;BME280;12220;50.194;18.948;2023-04-28T04:09:20;102321.86;;;3.86;61.41
24013;BME280;12220;50.194;18.948;2023-04-28T04:11:22;102328.14;;;3.88;61.48
24013;BME280;12220;50.194;18.948;2023-04-28T04:13:23;102328.99;;;3.90;61.56
24013;BME280;12220;50.194;18.948;2023-04-28T04:15:25;102332.59;;;3.92;61.66
24013;BME280;12220;50.194;18.948;2023-04-28T04:17:35;102334.36;;;3.95;61.65
24013;BME280;12220;50.194;18.948;2023-04-28T04:19:37;102334.34;;;3.96;61.68
24013;BME280;12220;50.194;18.948;2023-04-28T04:21:38;102333.41;;;3.96;61.76
24013;BME280;12220;50.194;18.948;2023-04-28T04:23:41;102342.44;;;3.98;61.83
24013;BME280;12220;50.194;18.948;2023-04-28T04:25:51;102347.86;;;3.98;61.87
24013;BME280;12220;50.194;18.948;2023-04-28T04:27:52;102347.84;;;3.99;61.89
24013;BME280;12220;50.194;18.948;2023-04-28T04:29:53;102115.45;;;2.56;61.88
24013;BME280;12220;50.194;18.948;2023-04-28T04:31:55;102350.48;;;4.03;62.04
24013;BME280;12220;50.194;18.948;2023-04-28T04:34:06;102345.92;;;4.05;62.03
24013;BME280;12220;50.194;18.948;2023-04-28T04:36:07;102354.95;;;4.07;62.10
24013;BME280;12220;50.194;18.948;2023-04-28T04:38:12;102344.04;;;4.10;62.16
24013;BME280;12220;50.194;18.948;2023-04-28T04:40:13;102337.71;;;4.11;62.22
24013;BME280;12220;50.194;18.948;2023-04-28T04:42:21;102347.58;;;4.13;62.30
24013;BME280;12220;50.194;18.948;2023-04-28T04:44:22;102344.84;;;4.15;62.40
24013;BME280;12220;50.194;18.948;2023-04-28T04:46:24;102339.38;;;4.16;62.36
24013;BME280;12220;50.194;18.948;2023-04-28T04:48:25;102343.84;;;4.21;62.49
24013;BME280;12220;50.194;18.948;2023-04-28T04:50:36;102341.06;;;4.24;62.49
24013;BME280;12220;50.194;18.948;2023-04-28T04:52:37;102341.98;;;4.24;62.57
24013;BME280;12220;50.194;18.948;2023-04-28T04:54:39;102343.78;;;4.24;62.67
24013;BME280;12220;50.194;18.948;2023-04-28T04:56:42;102342.86;;;4.25;62.75
24013;BME280;12220;50.194;18.948;2023-04-28T04:58:52;102345.52;;;4.28;62.80
24013;BME280;12220;50.194;18.948;2023-04-28T05:00:53;102341.86;;;4.30;62.88
24013;BME280;12220;50.194;18.948;2023-04-28T05:02:54;102340.92;;;4.33;62.97
24013;BME280;12220;50.194;18.948;2023-04-28T05:04:58;102345.34;;;4.39;63.09
24013;BME280;12220;50.194;18.948;2023-04-28T05:07:06;102412.17;;;4.41;63.10
24013;BME280;12220;50.194;18.948;2023-04-28T05:09:08;102343.36;;;4.47;63.18
24013;BME280;12220;50.194;18.948;2023-04-28T05:11:10;102333.33;;;4.52;63.22
24013;BME280;12220;50.194;18.948;2023-04-28T05:13:11;102335.03;;;4.58;63.24
24013;BME280;12220;50.194;18.948;2023-04-28T05:15:22;102335.78;;;4.64;63.25
24013;BME280;12220;50.194;18.948;2023-04-28T05:17:25;102337.45;;;4.71;63.36
24013;BME280;12220;50.194;18.948;2023-04-28T05:19:26;102335.53;;;4.78;63.47
24013;BME280;12220;50.194;18.948;2023-04-28T05:21:28;102338.98;;;4.86;63.50
24013;BME280;12220;50.194;18.948;2023-04-28T05:23:37;102342.38;;;4.96;63.45
24013;BME280;12220;50.194;18.948;2023-04-28T05:25:38;102339.52;;;5.04;63.44
24013;BME280;12220;50.194;18.948;2023-04-28T05:27:40;102333.88;;;5.13;63.42
24013;BME280;12220;50.194;18.948;2023-04-28T05:29:41;102338.21;;;5.22;63.42
24013;BME280;12220;50.194;18.948;2023-04-28T05:31:52;102330.73;;;5.33;63.37
24013;BME280;12220;50.194;18.948;2023-04-28T05:33:53;102337.77;;;5.42;63.30
24013;BME280;12220;50.194;18.948;2023-04-28T05:35:55;102331.27;;;5.49;63.22
24013;BME280;12220;50.194;18.948;2023-04-28T05:37:57;102329.20;;;5.59;63.13
24013;BME280;12220;50.194;18.948;2023-04-28T05:40:08;102328.13;;;5.66;63.04
24013;BME280;12220;50.194;18.948;2023-04-28T05:42:09;102339.76;;;5.73;62.92
24013;BME280;12220;50.194;18.948;2023-04-28T05:44:12;102342.28;;;5.81;62.80
24013;BME280;12220;50.194;18.948;2023-04-28T05:46:13;102333.99;;;5.87;62.69
24013;BME280;12220;50.194;18.948;2023-04-28T05:48:22;102327.44;;;5.94;62.59
24013;BME280;12220;50.194;18.948;2023-04-28T05:50:24;102334.59;;;6.00;62.54
24013;BME280;12220;50.194;18.948;2023-04-28T05:52:25;102331.78;;;6.04;62.49
24013;BME280;12220;50.194;18.948;2023-04-28T05:54:26;102331.57;;;6.12;62.46
24013;BME280;12220;50.194;18.948;2023-04-28T05:56:38;102333.23;;;6.18;62.38
24013;BME280;12220;50.194;18.948;2023-04-28T05:58:39;102150.94;;;5.17;62.25
24013;BME280;12220;50.194;18.948;2023-04-28T06:00:41;102332.85;;;6.32;62.26
24013;BME280;12220;50.194;18.948;2023-04-28T06:02:42;102331.76;;;6.39;62.21
24013;BME280;12220;50.194;18.948;2023-04-28T06:04:53;102334.29;;;6.47;62.16
24013;BME280;12220;50.194;18.948;2023-04-28T06:06:54;102334.99;;;6.53;62.13
24013;BME280;12220;50.194;18.948;2023-04-28T06:08:55;102337.45;;;6.62;62.09
24013;BME280;12220;50.194;18.948;2023-04-28T06:10:57;102332.74;;;6.69;62.06
24013;BME280;12220;50.194;18.948;2023-04-28T06:13:08;102333.43;;;6.77;61.94
24013;BME280;12220;50.194;18.948;2023-04-28T06:15:12;102328.68;;;6.84;61.97
24013;BME280;12220;50.194;18.948;2023-04-28T06:17:13;102328.42;;;6.93;61.94
24013;BME280;12220;50.194;18.948;2023-04-28T06:19:15;102327.30;;;7.01;61.83
24013;BME280;12220;50.194;18.948;2023-04-28T06:21:23;102328.81;;;7.11;61.78
24013;BME280;12220;50.194;18.948;2023-04-28T06:23:26;102330.41;;;7.18;61.68
24013;BME280;12220;50.194;18.948;2023-04-28T06:25:28;102332.89;;;7.26;61.58
24013;BME280;12220;50.194;18.948;2023-04-28T06:27:29;102330.84;;;7.34;61.51
24013;BME280;12220;50.194;18.948;2023-04-28T06:29:38;102327.80;;;7.43;61.38
24013;BME280;12220;50.194;18.948;2023-04-28T06:31:40;102327.56;;;7.51;61.33
24013;BME280;12220;50.194;18.948;2023-04-28T06:33:41;102335.46;;;7.60;61.38
24013;BME280;12220;50.194;18.948;2023-04-28T06:35:42;102324.30;;;7.68;61.21
24013;BME280;12220;50.194;18.948;2023-04-28T06:37:53;102320.42;;;7.75;60.94
24013;BME280;12220;50.194;18.948;2023-04-28T06:39:54;102326.55;;;7.82;60.85
24013;BME280;12220;50.194;18.948;2023-04-28T06:41:56;102325.46;;;7.88;60.63
24013;BME280;12220;50.194;18.948;2023-04-28T06:43:57;102330.68;;;7.95;60.48
24013;BME280;12220;50.194;18.948;2023-04-28T06:46:08;102324.07;;;8.02;60.39
24013;BME280;12220;50.194;18.948;2023-04-28T06:48:11;102331.10;;;8.10;60.27
24013;BME280;12220;50.194;18.948;2023-04-28T06:50:15;102317.30;;;8.14;60.13
24013;BME280;12220;50.194;18.948;2023-04-28T06:52:16;102315.11;;;8.24;60.15
24013;BME280;12220;50.194;18.948;2023-04-28T06:54:23;102312.19;;;8.30;59.81
24013;BME280;12220;50.194;18.948;2023-04-28T06:56:25;102310.98;;;8.39;59.67
24013;BME280;12220;50.194;18.948;2023-04-28T06:58:26;102307.12;;;8.46;59.57
24013;BME280;12220;50.194;18.948;2023-04-28T07:00:33;102302.30;;;8.53;59.47
24013;BME280;12220;50.194;18.948;2023-04-28T07:02:38;102307.33;;;8.65;59.42
24013;BME280;12220;50.194;18.948;2023-04-28T07:04:40;102299.72;;;8.73;59.19
24013;BME280;12220;50.194;18.948;2023-04-28T07:06:42;102299.40;;;8.83;58.88
24013;BME280;12220;50.194;18.948;2023-04-28T07:08:43;102307.16;;;8.94;58.79
24013;BME280;12220;50.194;18.948;2023-04-28T07:10:53;102292.19;;;9.04;58.54
24013;BME280;12220;50.194;18.948;2023-04-28T07:12:57;102286.39;;;9.13;58.14
24013;BME280;12220;50.194;18.948;2023-04-28T07:14:59;102282.27;;;9.25;57.65
24013;BME280;12220;50.194;18.948;2023-04-28T07:17:00;102283.68;;;9.35;57.34
24013;BME280;12220;50.194;18.948;2023-04-28T07:19:09;102279.62;;;9.46;57.26
24013;BME280;12220;50.194;18.948;2023-04-28T07:21:10;102282.88;;;9.55;56.80
24013;BME280;12220;50.194;18.948;2023-04-28T07:23:11;102288.83;;;9.65;56.60
24013;BME280;12220;50.194;18.948;2023-04-28T07:25:13;102287.55;;;9.74;56.39
24013;BME280;12220;50.194;18.948;2023-04-28T07:27:24;102284.32;;;9.86;56.31
24013;BME280;12220;50.194;18.948;2023-04-28T07:29:25;102279.28;;;9.98;56.06
24013;BME280;12220;50.194;18.948;2023-04-28T07:31:33;102277.92;;;10.08;55.67
24013;BME280;12220;50.194;18.948;2023-04-28T07:33:35;102275.55;;;10.21;55.29
24013;BME280;12220;50.194;18.948;2023-04-28T07:35:39;102264.95;;;10.34;55.19
24013;BME280;12220;50.194;18.948;2023-04-28T07:37:41;102267.22;;;10.44;53.78
24013;BME280;12220;50.194;18.948;2023-04-28T07:39:43;102268.37;;;10.59;54.25
24013;BME280;12220;50.194;18.948;2023-04-28T07:41:44;102265.00;;;10.73;53.93
24013;BME280;12220;50.194;18.948;2023-04-28T07:43:54;102263.46;;;10.87;53.83
24013;BME280;12220;50.194;18.948;2023-04-28T07:45:55;102268.34;;;10.99;53.65
24013;BME280;12220;50.194;18.948;2023-04-28T07:47:56;102270.52;;;11.11;53.19
24013;BME280;12220;50.194;18.948;2023-04-28T07:49:58;102257.98;;;11.25;52.93
24013;BME280;12220;50.194;18.948;2023-04-28T07:52:10;102259.16;;;11.38;52.85
24013;BME280;12220;50.194;18.948;2023-04-28T07:54:11;102265.81;;;11.51;52.01
24013;BME280;12220;50.194;18.948;2023-04-28T07:56:16;102258.88;;;11.62;51.68
24013;BME280;12220;50.194;18.948;2023-04-28T07:58:17;102261.03;;;11.74;51.46
24013;BME280;12220;50.194;18.948;2023-04-28T08:00:25;102256.77;;;11.86;51.50
24013;BME280;12220;50.194;18.948;2023-04-28T08:02:29;102253.48;;;11.97;51.08
24013;BME280;12220;50.194;18.948;2023-04-28T08:04:31;102248.41;;;12.07;50.37
24013;BME280;12220;50.194;18.948;2023-04-28T08:06:34;102249.78;;;12.15;49.73
24013;BME280;12220;50.194;18.948;2023-04-28T08:08:40;102245.66;;;12.24;48.81
24013;BME280;12220;50.194;18.948;2023-04-28T08:10:41;102250.74;;;12.32;48.91
24013;BME280;12220;50.194;18.948;2023-04-28T08:12:43;102246.55;;;12.42;48.46
24013;BME280;12220;50.194;18.948;2023-04-28T08:14:48;102238.59;;;12.53;47.04
24013;BME280;12220;50.194;18.948;2023-04-28T08:16:55;102242.70;;;12.62;46.81
24013;BME280;12220;50.194;18.948;2023-04-28T08:18:57;102234.93;;;12.70;46.73
24013;BME280;12220;50.194;18.948;2023-04-28T08:20:59;102229.91;;;12.79;45.78
24013;BME280;12220;50.194;18.948;2023-04-28T08:23:01;102229.37;;;12.88;46.50
24013;BME280;12220;50.194;18.948;2023-04-28T08:25:10;102042.41;;;11.91;46.82
24013;BME280;12220;50.194;18.948;2023-04-28T08:27:14;102218.21;;;13.07;45.42
24013;BME280;12220;50.194;18.948;2023-04-28T08:29:15;102224.27;;;13.14;43.72
24013;BME280;12220;50.194;18.948;2023-04-28T08:31:17;102223.64;;;13.24;43.57
24013;BME280;12220;50.194;18.948;2023-04-28T08:33:25;102215.78;;;13.34;44.27
24013;BME280;12220;50.194;18.948;2023-04-28T08:35:26;102209.73;;;13.43;44.19
24013;BME280;12220;50.194;18.948;2023-04-28T08:37:28;102202.78;;;13.52;43.54
24013;BME280;12220;50.194;18.948;2023-04-28T08:39:29;102210.58;;;13.60;43.02
24013;BME280;12220;50.194;18.948;2023-04-28T08:41:40;102206.38;;;13.69;43.10
24013;BME280;12220;50.194;18.948;2023-04-28T08:43:41;102209.77;;;13.74;42.55
24013;BME280;12220;50.194;18.948;2023-04-28T08:45:43;102203.69;;;13.83;42.20
24013;BME280;12220;50.194;18.948;2023-04-28T08:47:48;102202.96;;;13.95;42.69
24013;BME280;12220;50.194;18.948;2023-04-28T08:49:57;102204.95;;;14.08;42.80
24013;BME280;12220;50.194;18.948;2023-04-28T08:52:12;102200.63;;;14.18;42.79
24013;BME280;12220;50.194;18.948;2023-04-28T08:54:17;102202.83;;;14.27;42.43
24013;BME280;12220;50.194;18.948;2023-04-28T08:56:20;102199.68;;;14.34;41.94
24013;BME280;12220;50.194;18.948;2023-04-28T08:58:26;102201.08;;;14.41;41.96
24013;BME280;12220;50.194;18.948;2023-04-28T09:00:30;102194.19;;;14.48;42.11
24013;BME280;12220;50.194;18.948;2023-04-28T09:02:32;102195.48;;;14.57;42.14
24013;BME280;12220;50.194;18.948;2023-04-28T09:04:33;102189.59;;;14.63;41.10
24013;BME280;12220;50.194;18.948;2023-04-28T09:06:38;102189.02;;;14.72;41.90
24013;BME280;12220;50.194;18.948;2023-04-28T09:08:40;102187.34;;;14.84;41.30
24013;BME280;12220;50.194;18.948;2023-04-28T09:10:42;102183.09;;;14.93;40.73
24013;BME280;12220;50.194;18.948;2023-04-28T09:12:44;102182.57;;;15.01;40.78
24013;BME280;12220;50.194;18.948;2023-04-28T09:14:57;102187.68;;;15.07;40.60
24013;BME280;12220;50.194;18.948;2023-04-28T09:17:01;102192.98;;;15.10;40.11
24013;BME280;12220;50.194;18.948;2023-04-28T09:19:03;102186.08;;;15.17;40.24
24013;BME280;12220;50.194;18.948;2023-04-28T09:21:08;102183.70;;;15.25;39.91
24013;BME280;12220;50.194;18.948;2023-04-28T09:23:16;102183.06;;;15.34;39.81
24013;BME280;12220;50.194;18.948;2023-04-28T09:25:19;102186.31;;;15.41;39.90
24013;BME280;12220;50.194;18.948;2023-04-28T09:27:27;102168.55;;;15.45;39.46
24013;BME280;12220;50.194;18.948;2023-04-28T09:29:30;102170.79;;;15.53;39.44
24013;BME280;12220;50.194;18.948;2023-04-28T09:31:31;102168.60;;;15.58;39.41
24013;BME280;12220;50.194;18.948;2023-04-28T09:33:58;102159.89;;;15.64;39.27
24013;BME280;12220;50.194;18.948;2023-04-28T09:36:00;102157.58;;;15.71;38.91
24013;BME280;12220;50.194;18.948;2023-04-28T09:38:01;102158.95;;;15.78;39.05
24013;BME280;12220;50.194;18.948;2023-04-28T09:40:08;102156.88;;;15.82;38.53
24013;BME280;12220;50.194;18.948;2023-04-28T09:44:28;102148.28;;;15.99;37.85
24013;BME280;12220;50.194;18.948;2023-04-28T09:46:29;102144.75;;;16.10;37.93
24013;BME280;12220;50.194;18.948;2023-04-28T09:48:32;102148.84;;;16.17;37.37
24013;BME280;12220;50.194;18.948;2023-04-28T09:50:39;102139.23;;;16.23;37.59
24013;BME280;12220;50.194;18.948;2023-04-28T09:52:44;102160.78;;;16.31;37.56
24013;BME280;12220;50.194;18.948;2023-04-28T09:54:50;102130.26;;;16.32;37.01
24013;BME280;12220;50.194;18.948;2023-04-28T09:56:52;102122.52;;;16.37;37.45
24013;BME280;12220;50.194;18.948;2023-04-28T09:58:56;102127.17;;;16.50;37.51
24013;BME280;12220;50.194;18.948;2023-04-28T10:00:59;102126.49;;;16.59;37.30
24013;BME280;12220;50.194;18.948;2023-04-28T10:03:01;102122.27;;;16.66;36.26
24013;BME280;12220;50.194;18.948;2023-04-28T10:05:04;102117.27;;;16.71;36.08
24013;BME280;12220;50.194;18.948;2023-04-28T10:07:11;102133.97;;;16.70;36.02
24013;BME280;12220;50.194;18.948;2023-04-28T10:09:12;102113.40;;;16.74;36.56
24013;BME280;12220;50.194;18.948;2023-04-28T10:11:16;102109.30;;;16.80;36.37
24013;BME280;12220;50.194;18.948;2023-04-28T10:13:21;102110.83;;;16.84;36.15
24013;BME280;12220;50.194;18.948;2023-04-28T10:15:23;102099.21;;;16.92;36.18
24013;BME280;12220;50.194;18.948;2023-04-28T10:17:27;102102.41;;;16.98;36.16
24013;BME280;12220;50.194;18.948;2023-04-28T10:19:29;102099.18;;;17.04;35.95
24013;BME280;12220;50.194;18.948;2023-04-28T10:21:40;102095.53;;;17.04;34.40
24013;BME280;12220;50.194;18.948;2023-04-28T10:23:54;102089.63;;;17.08;35.12
24013;BME280;12220;50.194;18.948;2023-04-28T10:25:56;102092.05;;;17.13;35.27
24013;BME280;12220;50.194;18.948;2023-04-28T10:28:05;102083.38;;;17.18;35.45
24013;BME280;12220;50.194;18.948;2023-04-28T10:30:18;102085.05;;;17.20;34.96
24013;BME280;12220;50.194;18.948;2023-04-28T10:32:21;102081.91;;;17.25;35.31
24013;BME280;12220;50.194;18.948;2023-04-28T10:34:25;102079.69;;;17.30;35.28
24013;BME280;12220;50.194;18.948;2023-04-28T10:41:30;102073.39;;;17.64;35.64
24013;BME280;12220;50.194;18.948;2023-04-28T10:43:33;102071.66;;;17.74;34.57
24013;BME280;12220;50.194;18.948;2023-04-28T10:50:07;102063.10;;;17.77;34.33
24013;BME280;12220;50.194;18.948;2023-04-28T10:54:22;102053.57;;;17.92;34.41
24013;BME280;12220;50.194;18.948;2023-04-28T10:56:25;102038.21;;;18.00;33.28
24013;BME280;12220;50.194;18.948;2023-04-28T10:58:30;102036.34;;;18.00;33.38
24013;BME280;12220;50.194;18.948;2023-04-28T11:00:32;102036.59;;;17.97;33.71